<?xml version="1.0" encoding="UTF-8" standalone="no" ?>
<gpx xmlns="http://www.topografix.com/GPX/1/1" xmlns:xsi="http://www.w3.org/2001/XMLSchema-instance" xsi:schemaLocation="http://www.topografix.com/GPX/1/1 http://www.topografix.com/GPX/1/1/gpx.xsd" version="1.1" creator="VisuGPX - https://www.visugpx.com">
  <metadata>
    <name>LA FALAISE</name>
  </metadata>
  <trk>
    <name><![CDATA[Enregistrement du 10/06/2024-19281412]]></name>
    <trkseg>
      <trkpt lat="48.94321" lon="1.8326">
        <ele>36</ele>
        <time>2024-06-23T18:38:35Z</time>
      </trkpt>
      <trkpt lat="48.94356" lon="1.83234">
        <ele>34</ele>
        <time>2024-06-23T18:39:27Z</time>
      </trkpt>
      <trkpt lat="48.94377" lon="1.83232">
        <ele>32</ele>
        <time>2024-06-23T18:39:55Z</time>
      </trkpt>
      <trkpt lat="48.94408" lon="1.83205">
        <ele>31</ele>
        <time>2024-06-23T18:40:43Z</time>
      </trkpt>
      <trkpt lat="48.94414" lon="1.83192">
        <ele>31</ele>
        <time>2024-06-23T18:40:57Z</time>
      </trkpt>
      <trkpt lat="48.94411" lon="1.8317">
        <ele>33</ele>
        <time>2024-06-23T18:41:16Z</time>
      </trkpt>
      <trkpt lat="48.94402" lon="1.83145">
        <ele>37</ele>
        <time>2024-06-23T18:41:41Z</time>
      </trkpt>
      <trkpt lat="48.9437" lon="1.8308">
        <ele>48</ele>
        <time>2024-06-23T18:42:53Z</time>
      </trkpt>
      <trkpt lat="48.94362" lon="1.83016">
        <ele>53</ele>
        <time>2024-06-23T18:43:50Z</time>
      </trkpt>
      <trkpt lat="48.94347" lon="1.82978">
        <ele>57</ele>
        <time>2024-06-23T18:44:28Z</time>
      </trkpt>
      <trkpt lat="48.94337" lon="1.82967">
        <ele>58</ele>
        <time>2024-06-23T18:44:45Z</time>
      </trkpt>
      <trkpt lat="48.94293" lon="1.82892">
        <ele>69</ele>
        <time>2024-06-23T18:46:13Z</time>
      </trkpt>
      <trkpt lat="48.94276" lon="1.82871">
        <ele>71</ele>
        <time>2024-06-23T18:46:42Z</time>
      </trkpt>
      <trkpt lat="48.94269" lon="1.82849">
        <ele>72</ele>
        <time>2024-06-23T18:47:04Z</time>
      </trkpt>
      <trkpt lat="48.94261" lon="1.82861">
        <ele>72</ele>
        <time>2024-06-23T18:47:19Z</time>
      </trkpt>
      <trkpt lat="48.94272" lon="1.8284">
        <ele>72</ele>
        <time>2024-06-23T18:47:42Z</time>
      </trkpt>
      <trkpt lat="48.94313" lon="1.82796">
        <ele>75</ele>
        <time>2024-06-23T18:48:49Z</time>
      </trkpt>
      <trkpt lat="48.94327" lon="1.82789">
        <ele>75</ele>
        <time>2024-06-23T18:49:09Z</time>
      </trkpt>
      <trkpt lat="48.94334" lon="1.82778">
        <ele>76</ele>
        <time>2024-06-23T18:49:22Z</time>
      </trkpt>
      <trkpt lat="48.94334" lon="1.82771">
        <ele>77</ele>
        <time>2024-06-23T18:49:28Z</time>
      </trkpt>
      <trkpt lat="48.94303" lon="1.82737">
        <ele>80</ele>
        <time>2024-06-23T18:50:19Z</time>
      </trkpt>
      <trkpt lat="48.94281" lon="1.82722">
        <ele>82</ele>
        <time>2024-06-23T18:50:52Z</time>
      </trkpt>
      <trkpt lat="48.94265" lon="1.82701">
        <ele>84</ele>
        <time>2024-06-23T18:51:20Z</time>
      </trkpt>
      <trkpt lat="48.9424" lon="1.8268">
        <ele>86</ele>
        <time>2024-06-23T18:51:58Z</time>
      </trkpt>
      <trkpt lat="48.94233" lon="1.8268">
        <ele>86</ele>
        <time>2024-06-23T18:52:07Z</time>
      </trkpt>
      <trkpt lat="48.9419" lon="1.82648">
        <ele>91</ele>
        <time>2024-06-23T18:53:11Z</time>
      </trkpt>
      <trkpt lat="48.94154" lon="1.82649">
        <ele>92</ele>
        <time>2024-06-23T18:53:59Z</time>
      </trkpt>
      <trkpt lat="48.94138" lon="1.82637">
        <ele>94</ele>
        <time>2024-06-23T18:54:23Z</time>
      </trkpt>
      <trkpt lat="48.94125" lon="1.82618">
        <ele>95</ele>
        <time>2024-06-23T18:54:47Z</time>
      </trkpt>
      <trkpt lat="48.94109" lon="1.82611">
        <ele>96</ele>
        <time>2024-06-23T18:55:09Z</time>
      </trkpt>
      <trkpt lat="48.94078" lon="1.82579">
        <ele>98</ele>
        <time>2024-06-23T18:55:59Z</time>
      </trkpt>
      <trkpt lat="48.94059" lon="1.82547">
        <ele>101</ele>
        <time>2024-06-23T18:56:37Z</time>
      </trkpt>
      <trkpt lat="48.9405" lon="1.82523">
        <ele>102</ele>
        <time>2024-06-23T18:57:01Z</time>
      </trkpt>
      <trkpt lat="48.94089" lon="1.82439">
        <ele>107</ele>
        <time>2024-06-23T18:58:31Z</time>
      </trkpt>
      <trkpt lat="48.94102" lon="1.82388">
        <ele>111</ele>
        <time>2024-06-23T18:59:19Z</time>
      </trkpt>
      <trkpt lat="48.94102" lon="1.82369">
        <ele>112</ele>
        <time>2024-06-23T18:59:36Z</time>
      </trkpt>
      <trkpt lat="48.94113" lon="1.82351">
        <ele>114</ele>
        <time>2024-06-23T18:59:58Z</time>
      </trkpt>
      <trkpt lat="48.94114" lon="1.82331">
        <ele>115</ele>
        <time>2024-06-23T19:00:15Z</time>
      </trkpt>
      <trkpt lat="48.94125" lon="1.82325">
        <ele>116</ele>
        <time>2024-06-23T19:00:31Z</time>
      </trkpt>
      <trkpt lat="48.94153" lon="1.8227">
        <ele>122</ele>
        <time>2024-06-23T19:01:32Z</time>
      </trkpt>
      <trkpt lat="48.94154" lon="1.82256">
        <ele>123</ele>
        <time>2024-06-23T19:01:44Z</time>
      </trkpt>
      <trkpt lat="48.94161" lon="1.82247">
        <ele>124</ele>
        <time>2024-06-23T19:01:56Z</time>
      </trkpt>
      <trkpt lat="48.94184" lon="1.82164">
        <ele>125</ele>
        <time>2024-06-23T19:03:15Z</time>
      </trkpt>
      <trkpt lat="48.9419" lon="1.82134">
        <ele>125</ele>
        <time>2024-06-23T19:03:43Z</time>
      </trkpt>
      <trkpt lat="48.94188" lon="1.82127">
        <ele>125</ele>
        <time>2024-06-23T19:03:49Z</time>
      </trkpt>
      <trkpt lat="48.94197" lon="1.82123">
        <ele>126</ele>
        <time>2024-06-23T19:04:02Z</time>
      </trkpt>
      <trkpt lat="48.94204" lon="1.82101">
        <ele>126</ele>
        <time>2024-06-23T19:04:23Z</time>
      </trkpt>
      <trkpt lat="48.94206" lon="1.82076">
        <ele>126</ele>
        <time>2024-06-23T19:04:45Z</time>
      </trkpt>
      <trkpt lat="48.94224" lon="1.82037">
        <ele>127</ele>
        <time>2024-06-23T19:05:27Z</time>
      </trkpt>
      <trkpt lat="48.94225" lon="1.82027">
        <ele>127</ele>
        <time>2024-06-23T19:05:36Z</time>
      </trkpt>
      <trkpt lat="48.94217" lon="1.81992">
        <ele>126</ele>
        <time>2024-06-23T19:06:09Z</time>
      </trkpt>
      <trkpt lat="48.94226" lon="1.81948">
        <ele>126</ele>
        <time>2024-06-23T19:06:49Z</time>
      </trkpt>
      <trkpt lat="48.94235" lon="1.81826">
        <ele>124</ele>
        <time>2024-06-23T19:08:37Z</time>
      </trkpt>
      <trkpt lat="48.94244" lon="1.8178">
        <ele>125</ele>
        <time>2024-06-23T19:09:19Z</time>
      </trkpt>
      <trkpt lat="48.94241" lon="1.81757">
        <ele>125</ele>
        <time>2024-06-23T19:09:39Z</time>
      </trkpt>
      <trkpt lat="48.94196" lon="1.81701">
        <ele>125</ele>
        <time>2024-06-23T19:10:57Z</time>
      </trkpt>
      <trkpt lat="48.9412" lon="1.81641">
        <ele>125</ele>
        <time>2024-06-23T19:12:51Z</time>
      </trkpt>
      <trkpt lat="48.94058" lon="1.81581">
        <ele>125</ele>
        <time>2024-06-23T19:14:29Z</time>
      </trkpt>
      <trkpt lat="48.94028" lon="1.81544">
        <ele>125</ele>
        <time>2024-06-23T19:15:21Z</time>
      </trkpt>
      <trkpt lat="48.93962" lon="1.81476">
        <ele>124</ele>
        <time>2024-06-23T19:17:07Z</time>
      </trkpt>
      <trkpt lat="48.93959" lon="1.81462">
        <ele>124</ele>
        <time>2024-06-23T19:17:20Z</time>
      </trkpt>
      <trkpt lat="48.93962" lon="1.81452">
        <ele>124</ele>
        <time>2024-06-23T19:17:29Z</time>
      </trkpt>
      <trkpt lat="48.93994" lon="1.81383">
        <ele>123</ele>
        <time>2024-06-23T19:18:43Z</time>
      </trkpt>
      <trkpt lat="48.94" lon="1.81347">
        <ele>121</ele>
        <time>2024-06-23T19:19:16Z</time>
      </trkpt>
      <trkpt lat="48.93999" lon="1.81309">
        <ele>120</ele>
        <time>2024-06-23T19:19:49Z</time>
      </trkpt>
      <trkpt lat="48.93977" lon="1.81314">
        <ele>120</ele>
        <time>2024-06-23T19:20:19Z</time>
      </trkpt>
      <trkpt lat="48.93945" lon="1.81314">
        <ele>120</ele>
        <time>2024-06-23T19:21:02Z</time>
      </trkpt>
      <trkpt lat="48.9392" lon="1.81306">
        <ele>120</ele>
        <time>2024-06-23T19:21:36Z</time>
      </trkpt>
      <trkpt lat="48.93836" lon="1.81251">
        <ele>123</ele>
        <time>2024-06-23T19:23:38Z</time>
      </trkpt>
      <trkpt lat="48.93788" lon="1.81205">
        <ele>123</ele>
        <time>2024-06-23T19:24:54Z</time>
      </trkpt>
      <trkpt lat="48.93739" lon="1.81171">
        <ele>124</ele>
        <time>2024-06-23T19:26:05Z</time>
      </trkpt>
      <trkpt lat="48.9369" lon="1.81147">
        <ele>126</ele>
        <time>2024-06-23T19:27:14Z</time>
      </trkpt>
      <trkpt lat="48.93642" lon="1.81129">
        <ele>127</ele>
        <time>2024-06-23T19:28:20Z</time>
      </trkpt>
      <trkpt lat="48.93619" lon="1.81114">
        <ele>127</ele>
        <time>2024-06-23T19:28:53Z</time>
      </trkpt>
      <trkpt lat="48.93493" lon="1.81083">
        <ele>129</ele>
        <time>2024-06-23T19:31:44Z</time>
      </trkpt>
      <trkpt lat="48.93434" lon="1.81073">
        <ele>131</ele>
        <time>2024-06-23T19:33:03Z</time>
      </trkpt>
      <trkpt lat="48.93366" lon="1.81051">
        <ele>132</ele>
        <time>2024-06-23T19:34:36Z</time>
      </trkpt>
      <trkpt lat="48.93335" lon="1.81045">
        <ele>132</ele>
        <time>2024-06-23T19:35:17Z</time>
      </trkpt>
      <trkpt lat="48.93317" lon="1.81036">
        <ele>133</ele>
        <time>2024-06-23T19:35:43Z</time>
      </trkpt>
      <trkpt lat="48.93277" lon="1.81027">
        <ele>134</ele>
        <time>2024-06-23T19:36:37Z</time>
      </trkpt>
      <trkpt lat="48.93164" lon="1.8097">
        <ele>137</ele>
        <time>2024-06-23T19:39:16Z</time>
      </trkpt>
      <trkpt lat="48.93112" lon="1.80928">
        <ele>136</ele>
        <time>2024-06-23T19:40:34Z</time>
      </trkpt>
      <trkpt lat="48.93042" lon="1.80856">
        <ele>137</ele>
        <time>2024-06-23T19:42:27Z</time>
      </trkpt>
      <trkpt lat="48.93008" lon="1.8083">
        <ele>137</ele>
        <time>2024-06-23T19:43:18Z</time>
      </trkpt>
      <trkpt lat="48.92977" lon="1.80797">
        <ele>137</ele>
        <time>2024-06-23T19:44:08Z</time>
      </trkpt>
      <trkpt lat="48.92908" lon="1.8074">
        <ele>137</ele>
        <time>2024-06-23T19:45:53Z</time>
      </trkpt>
      <trkpt lat="48.92779" lon="1.80615">
        <ele>135</ele>
        <time>2024-06-23T19:49:17Z</time>
      </trkpt>
      <trkpt lat="48.92758" lon="1.806">
        <ele>134</ele>
        <time>2024-06-23T19:49:48Z</time>
      </trkpt>
      <trkpt lat="48.92726" lon="1.80562">
        <ele>134</ele>
        <time>2024-06-23T19:50:42Z</time>
      </trkpt>
      <trkpt lat="48.92672" lon="1.80518">
        <ele>135</ele>
        <time>2024-06-23T19:52:04Z</time>
      </trkpt>
      <trkpt lat="48.9265" lon="1.80492">
        <ele>137</ele>
        <time>2024-06-23T19:52:41Z</time>
      </trkpt>
      <trkpt lat="48.92629" lon="1.80479">
        <ele>139</ele>
        <time>2024-06-23T19:53:11Z</time>
      </trkpt>
      <trkpt lat="48.92615" lon="1.80461">
        <ele>141</ele>
        <time>2024-06-23T19:53:36Z</time>
      </trkpt>
      <trkpt lat="48.92611" lon="1.8046">
        <ele>141</ele>
        <time>2024-06-23T19:53:41Z</time>
      </trkpt>
      <trkpt lat="48.92611" lon="1.80464">
        <ele>141</ele>
        <time>2024-06-23T19:53:45Z</time>
      </trkpt>
      <trkpt lat="48.9262" lon="1.8044">
        <ele>141</ele>
        <time>2024-06-23T19:54:09Z</time>
      </trkpt>
      <trkpt lat="48.9262" lon="1.80429">
        <ele>142</ele>
        <time>2024-06-23T19:54:18Z</time>
      </trkpt>
      <trkpt lat="48.92619" lon="1.80459">
        <ele>141</ele>
        <time>2024-06-23T19:54:45Z</time>
      </trkpt>
      <trkpt lat="48.92601" lon="1.80443">
        <ele>142</ele>
        <time>2024-06-23T19:55:13Z</time>
      </trkpt>
      <trkpt lat="48.9259" lon="1.80389">
        <ele>144</ele>
        <time>2024-06-23T19:56:02Z</time>
      </trkpt>
      <trkpt lat="48.92597" lon="1.80446">
        <ele>142</ele>
        <time>2024-06-23T19:56:53Z</time>
      </trkpt>
      <trkpt lat="48.92606" lon="1.80463">
        <ele>141</ele>
        <time>2024-06-23T19:57:12Z</time>
      </trkpt>
      <trkpt lat="48.92602" lon="1.80469">
        <ele>141</ele>
        <time>2024-06-23T19:57:20Z</time>
      </trkpt>
      <trkpt lat="48.92593" lon="1.80477">
        <ele>141</ele>
        <time>2024-06-23T19:57:34Z</time>
      </trkpt>
      <trkpt lat="48.92566" lon="1.80482">
        <ele>142</ele>
        <time>2024-06-23T19:58:10Z</time>
      </trkpt>
      <trkpt lat="48.92543" lon="1.80469">
        <ele>142</ele>
        <time>2024-06-23T19:58:43Z</time>
      </trkpt>
      <trkpt lat="48.92535" lon="1.8046">
        <ele>142</ele>
        <time>2024-06-23T19:58:56Z</time>
      </trkpt>
      <trkpt lat="48.92526" lon="1.80444">
        <ele>143</ele>
        <time>2024-06-23T19:59:14Z</time>
      </trkpt>
      <trkpt lat="48.92522" lon="1.80407">
        <ele>143</ele>
        <time>2024-06-23T19:59:47Z</time>
      </trkpt>
      <trkpt lat="48.92513" lon="1.80382">
        <ele>144</ele>
        <time>2024-06-23T20:00:12Z</time>
      </trkpt>
      <trkpt lat="48.92503" lon="1.80361">
        <ele>144</ele>
        <time>2024-06-23T20:00:35Z</time>
      </trkpt>
      <trkpt lat="48.92491" lon="1.80347">
        <ele>143</ele>
        <time>2024-06-23T20:00:55Z</time>
      </trkpt>
      <trkpt lat="48.92495" lon="1.80316">
        <ele>144</ele>
        <time>2024-06-23T20:01:23Z</time>
      </trkpt>
      <trkpt lat="48.92472" lon="1.80301">
        <ele>143</ele>
        <time>2024-06-23T20:01:56Z</time>
      </trkpt>
      <trkpt lat="48.92464" lon="1.80264">
        <ele>143</ele>
        <time>2024-06-23T20:02:30Z</time>
      </trkpt>
      <trkpt lat="48.92446" lon="1.80226">
        <ele>143</ele>
        <time>2024-06-23T20:03:11Z</time>
      </trkpt>
      <trkpt lat="48.92432" lon="1.80158">
        <ele>142</ele>
        <time>2024-06-23T20:04:14Z</time>
      </trkpt>
      <trkpt lat="48.92418" lon="1.80129">
        <ele>141</ele>
        <time>2024-06-23T20:04:46Z</time>
      </trkpt>
      <trkpt lat="48.92416" lon="1.80103">
        <ele>140</ele>
        <time>2024-06-23T20:05:08Z</time>
      </trkpt>
      <trkpt lat="48.92397" lon="1.80076">
        <ele>139</ele>
        <time>2024-06-23T20:05:43Z</time>
      </trkpt>
      <trkpt lat="48.92354" lon="1.79985">
        <ele>137</ele>
        <time>2024-06-23T20:07:21Z</time>
      </trkpt>
      <trkpt lat="48.92348" lon="1.79962">
        <ele>137</ele>
        <time>2024-06-23T20:07:43Z</time>
      </trkpt>
      <trkpt lat="48.92335" lon="1.79942">
        <ele>137</ele>
        <time>2024-06-23T20:08:08Z</time>
      </trkpt>
      <trkpt lat="48.92326" lon="1.79893">
        <ele>137</ele>
        <time>2024-06-23T20:08:52Z</time>
      </trkpt>
      <trkpt lat="48.92332" lon="1.79872">
        <ele>137</ele>
        <time>2024-06-23T20:09:12Z</time>
      </trkpt>
      <trkpt lat="48.92346" lon="1.79851">
        <ele>137</ele>
        <time>2024-06-23T20:09:39Z</time>
      </trkpt>
      <trkpt lat="48.92353" lon="1.79825">
        <ele>137</ele>
        <time>2024-06-23T20:10:03Z</time>
      </trkpt>
      <trkpt lat="48.92371" lon="1.79804">
        <ele>136</ele>
        <time>2024-06-23T20:10:34Z</time>
      </trkpt>
      <trkpt lat="48.92391" lon="1.79754">
        <ele>135</ele>
        <time>2024-06-23T20:11:25Z</time>
      </trkpt>
      <trkpt lat="48.92408" lon="1.79735">
        <ele>135</ele>
        <time>2024-06-23T20:11:53Z</time>
      </trkpt>
      <trkpt lat="48.92419" lon="1.79714">
        <ele>134</ele>
        <time>2024-06-23T20:12:17Z</time>
      </trkpt>
      <trkpt lat="48.92446" lon="1.79607">
        <ele>131</ele>
        <time>2024-06-23T20:13:57Z</time>
      </trkpt>
      <trkpt lat="48.92377" lon="1.79536">
        <ele>129</ele>
        <time>2024-06-23T20:15:48Z</time>
      </trkpt>
      <trkpt lat="48.92319" lon="1.79466">
        <ele>126</ele>
        <time>2024-06-23T20:17:27Z</time>
      </trkpt>
      <trkpt lat="48.92301" lon="1.79452">
        <ele>125</ele>
        <time>2024-06-23T20:17:54Z</time>
      </trkpt>
      <trkpt lat="48.92257" lon="1.79387">
        <ele>119</ele>
        <time>2024-06-23T20:19:16Z</time>
      </trkpt>
      <trkpt lat="48.92207" lon="1.79335">
        <ele>115</ele>
        <time>2024-06-23T20:20:37Z</time>
      </trkpt>
      <trkpt lat="48.92189" lon="1.79295">
        <ele>113</ele>
        <time>2024-06-23T20:21:19Z</time>
      </trkpt>
      <trkpt lat="48.92178" lon="1.79285">
        <ele>113</ele>
        <time>2024-06-23T20:21:36Z</time>
      </trkpt>
      <trkpt lat="48.92161" lon="1.79259">
        <ele>112</ele>
        <time>2024-06-23T20:22:08Z</time>
      </trkpt>
      <trkpt lat="48.92156" lon="1.79238">
        <ele>112</ele>
        <time>2024-06-23T20:22:28Z</time>
      </trkpt>
      <trkpt lat="48.92165" lon="1.79226">
        <ele>112</ele>
        <time>2024-06-23T20:22:44Z</time>
      </trkpt>
      <trkpt lat="48.9219" lon="1.79213">
        <ele>112</ele>
        <time>2024-06-23T20:23:19Z</time>
      </trkpt>
      <trkpt lat="48.92222" lon="1.79203">
        <ele>113</ele>
        <time>2024-06-23T20:24:03Z</time>
      </trkpt>
      <trkpt lat="48.92263" lon="1.79173">
        <ele>115</ele>
        <time>2024-06-23T20:25:04Z</time>
      </trkpt>
      <trkpt lat="48.92286" lon="1.79129">
        <ele>118</ele>
        <time>2024-06-23T20:25:53Z</time>
      </trkpt>
      <trkpt lat="48.9229" lon="1.7913">
        <ele>118</ele>
        <time>2024-06-23T20:25:58Z</time>
      </trkpt>
      <trkpt lat="48.92311" lon="1.79093">
        <ele>119</ele>
        <time>2024-06-23T20:26:41Z</time>
      </trkpt>
      <trkpt lat="48.92381" lon="1.79012">
        <ele>124</ele>
        <time>2024-06-23T20:28:38Z</time>
      </trkpt>
      <trkpt lat="48.92409" lon="1.78963">
        <ele>125</ele>
        <time>2024-06-23T20:29:35Z</time>
      </trkpt>
      <trkpt lat="48.92415" lon="1.78969">
        <ele>124</ele>
        <time>2024-06-23T20:29:45Z</time>
      </trkpt>
      <trkpt lat="48.92418" lon="1.78966">
        <ele>124</ele>
        <time>2024-06-23T20:29:50Z</time>
      </trkpt>
      <trkpt lat="48.92446" lon="1.78925">
        <ele>125</ele>
        <time>2024-06-23T20:30:42Z</time>
      </trkpt>
      <trkpt lat="48.92475" lon="1.78893">
        <ele>126</ele>
        <time>2024-06-23T20:31:29Z</time>
      </trkpt>
      <trkpt lat="48.92488" lon="1.78868">
        <ele>126</ele>
        <time>2024-06-23T20:31:57Z</time>
      </trkpt>
      <trkpt lat="48.92493" lon="1.78864">
        <ele>126</ele>
        <time>2024-06-23T20:32:05Z</time>
      </trkpt>
      <trkpt lat="48.92494" lon="1.78867">
        <ele>126</ele>
        <time>2024-06-23T20:32:08Z</time>
      </trkpt>
      <trkpt lat="48.92549" lon="1.78793">
        <ele>128</ele>
        <time>2024-06-23T20:33:46Z</time>
      </trkpt>
      <trkpt lat="48.92574" lon="1.78746">
        <ele>128</ele>
        <time>2024-06-23T20:34:39Z</time>
      </trkpt>
      <trkpt lat="48.92602" lon="1.78719">
        <ele>127</ele>
        <time>2024-06-23T20:35:23Z</time>
      </trkpt>
      <trkpt lat="48.92612" lon="1.78717">
        <ele>127</ele>
        <time>2024-06-23T20:35:37Z</time>
      </trkpt>
      <trkpt lat="48.92621" lon="1.78697">
        <ele>127</ele>
        <time>2024-06-23T20:35:58Z</time>
      </trkpt>
      <trkpt lat="48.92656" lon="1.78657">
        <ele>126</ele>
        <time>2024-06-23T20:36:56Z</time>
      </trkpt>
      <trkpt lat="48.92703" lon="1.78576">
        <ele>130</ele>
        <time>2024-06-23T20:38:31Z</time>
      </trkpt>
      <trkpt lat="48.92719" lon="1.78535">
        <ele>131</ele>
        <time>2024-06-23T20:39:13Z</time>
      </trkpt>
      <trkpt lat="48.92739" lon="1.78515">
        <ele>132</ele>
        <time>2024-06-23T20:39:45Z</time>
      </trkpt>
      <trkpt lat="48.92752" lon="1.78519">
        <ele>133</ele>
        <time>2024-06-23T20:40:02Z</time>
      </trkpt>
      <trkpt lat="48.92761" lon="1.78507">
        <ele>133</ele>
        <time>2024-06-23T20:40:18Z</time>
      </trkpt>
      <trkpt lat="48.92783" lon="1.78448">
        <ele>133</ele>
        <time>2024-06-23T20:41:18Z</time>
      </trkpt>
      <trkpt lat="48.92811" lon="1.78421">
        <ele>133</ele>
        <time>2024-06-23T20:42:02Z</time>
      </trkpt>
      <trkpt lat="48.92885" lon="1.78326">
        <ele>134</ele>
        <time>2024-06-23T20:44:11Z</time>
      </trkpt>
      <trkpt lat="48.92922" lon="1.78293">
        <ele>135</ele>
        <time>2024-06-23T20:45:09Z</time>
      </trkpt>
      <trkpt lat="48.92928" lon="1.78258">
        <ele>133</ele>
        <time>2024-06-23T20:45:40Z</time>
      </trkpt>
      <trkpt lat="48.92928" lon="1.78167">
        <ele>126</ele>
        <time>2024-06-23T20:47:00Z</time>
      </trkpt>
      <trkpt lat="48.92937" lon="1.78153">
        <ele>125</ele>
        <time>2024-06-23T20:47:17Z</time>
      </trkpt>
      <trkpt lat="48.92933" lon="1.78141">
        <ele>124</ele>
        <time>2024-06-23T20:47:29Z</time>
      </trkpt>
      <trkpt lat="48.92948" lon="1.78158">
        <ele>125</ele>
        <time>2024-06-23T20:47:54Z</time>
      </trkpt>
      <trkpt lat="48.9298" lon="1.78148">
        <ele>123</ele>
        <time>2024-06-23T20:48:38Z</time>
      </trkpt>
      <trkpt lat="48.93019" lon="1.78144">
        <ele>123</ele>
        <time>2024-06-23T20:49:30Z</time>
      </trkpt>
      <trkpt lat="48.93093" lon="1.78148">
        <ele>126</ele>
        <time>2024-06-23T20:51:09Z</time>
      </trkpt>
      <trkpt lat="48.93172" lon="1.7816">
        <ele>131</ele>
        <time>2024-06-23T20:52:54Z</time>
      </trkpt>
      <trkpt lat="48.93193" lon="1.78159">
        <ele>132</ele>
        <time>2024-06-23T20:53:22Z</time>
      </trkpt>
      <trkpt lat="48.93219" lon="1.78149">
        <ele>134</ele>
        <time>2024-06-23T20:53:58Z</time>
      </trkpt>
      <trkpt lat="48.93226" lon="1.7815">
        <ele>134</ele>
        <time>2024-06-23T20:54:08Z</time>
      </trkpt>
      <trkpt lat="48.93266" lon="1.78197">
        <ele>136</ele>
        <time>2024-06-23T20:55:15Z</time>
      </trkpt>
      <trkpt lat="48.93288" lon="1.78232">
        <ele>137</ele>
        <time>2024-06-23T20:55:58Z</time>
      </trkpt>
      <trkpt lat="48.93311" lon="1.78249">
        <ele>139</ele>
        <time>2024-06-23T20:56:32Z</time>
      </trkpt>
      <trkpt lat="48.93307" lon="1.78242">
        <ele>139</ele>
        <time>2024-06-23T20:56:40Z</time>
      </trkpt>
      <trkpt lat="48.93284" lon="1.78227">
        <ele>137</ele>
        <time>2024-06-23T20:57:13Z</time>
      </trkpt>
      <trkpt lat="48.93251" lon="1.78179">
        <ele>136</ele>
        <time>2024-06-23T20:58:14Z</time>
      </trkpt>
      <trkpt lat="48.93247" lon="1.78166">
        <ele>136</ele>
        <time>2024-06-23T20:58:27Z</time>
      </trkpt>
      <trkpt lat="48.93258" lon="1.78147">
        <ele>136</ele>
        <time>2024-06-23T20:58:49Z</time>
      </trkpt>
      <trkpt lat="48.93279" lon="1.78132">
        <ele>137</ele>
        <time>2024-06-23T20:59:20Z</time>
      </trkpt>
      <trkpt lat="48.93328" lon="1.78141">
        <ele>139</ele>
        <time>2024-06-23T21:00:26Z</time>
      </trkpt>
      <trkpt lat="48.93344" lon="1.78148">
        <ele>139</ele>
        <time>2024-06-23T21:00:48Z</time>
      </trkpt>
      <trkpt lat="48.93357" lon="1.78144">
        <ele>139</ele>
        <time>2024-06-23T21:01:06Z</time>
      </trkpt>
      <trkpt lat="48.93376" lon="1.78131">
        <ele>139</ele>
        <time>2024-06-23T21:01:33Z</time>
      </trkpt>
      <trkpt lat="48.9339" lon="1.78115">
        <ele>139</ele>
        <time>2024-06-23T21:01:57Z</time>
      </trkpt>
      <trkpt lat="48.93404" lon="1.78089">
        <ele>140</ele>
        <time>2024-06-23T21:02:26Z</time>
      </trkpt>
      <trkpt lat="48.93416" lon="1.78081">
        <ele>140</ele>
        <time>2024-06-23T21:02:44Z</time>
      </trkpt>
      <trkpt lat="48.9343" lon="1.78053">
        <ele>139</ele>
        <time>2024-06-23T21:03:15Z</time>
      </trkpt>
      <trkpt lat="48.93445" lon="1.78036">
        <ele>138</ele>
        <time>2024-06-23T21:03:40Z</time>
      </trkpt>
      <trkpt lat="48.93448" lon="1.78022">
        <ele>138</ele>
        <time>2024-06-23T21:03:52Z</time>
      </trkpt>
      <trkpt lat="48.9343" lon="1.77967">
        <ele>137</ele>
        <time>2024-06-23T21:04:46Z</time>
      </trkpt>
      <trkpt lat="48.9341" lon="1.7793">
        <ele>137</ele>
        <time>2024-06-23T21:05:28Z</time>
      </trkpt>
      <trkpt lat="48.93393" lon="1.77922">
        <ele>137</ele>
        <time>2024-06-23T21:05:52Z</time>
      </trkpt>
      <trkpt lat="48.9338" lon="1.77908">
        <ele>137</ele>
        <time>2024-06-23T21:06:13Z</time>
      </trkpt>
      <trkpt lat="48.93373" lon="1.77877">
        <ele>137</ele>
        <time>2024-06-23T21:06:42Z</time>
      </trkpt>
      <trkpt lat="48.93359" lon="1.77845">
        <ele>136</ele>
        <time>2024-06-23T21:07:16Z</time>
      </trkpt>
      <trkpt lat="48.93335" lon="1.77819">
        <ele>135</ele>
        <time>2024-06-23T21:07:55Z</time>
      </trkpt>
      <trkpt lat="48.93333" lon="1.77806">
        <ele>134</ele>
        <time>2024-06-23T21:08:07Z</time>
      </trkpt>
      <trkpt lat="48.93337" lon="1.778">
        <ele>133</ele>
        <time>2024-06-23T21:08:14Z</time>
      </trkpt>
      <trkpt lat="48.93342" lon="1.77817">
        <ele>135</ele>
        <time>2024-06-23T21:08:31Z</time>
      </trkpt>
      <trkpt lat="48.9337" lon="1.77859">
        <ele>136</ele>
        <time>2024-06-23T21:09:23Z</time>
      </trkpt>
      <trkpt lat="48.93379" lon="1.77862">
        <ele>136</ele>
        <time>2024-06-23T21:09:35Z</time>
      </trkpt>
      <trkpt lat="48.934" lon="1.7785">
        <ele>135</ele>
        <time>2024-06-23T21:10:05Z</time>
      </trkpt>
      <trkpt lat="48.93437" lon="1.77851">
        <ele>135</ele>
        <time>2024-06-23T21:10:55Z</time>
      </trkpt>
      <trkpt lat="48.9346" lon="1.77864">
        <ele>135</ele>
        <time>2024-06-23T21:11:27Z</time>
      </trkpt>
      <trkpt lat="48.93472" lon="1.77876">
        <ele>136</ele>
        <time>2024-06-23T21:11:47Z</time>
      </trkpt>
      <trkpt lat="48.93486" lon="1.77877">
        <ele>136</ele>
        <time>2024-06-23T21:12:05Z</time>
      </trkpt>
      <trkpt lat="48.93498" lon="1.77868">
        <ele>135</ele>
        <time>2024-06-23T21:12:23Z</time>
      </trkpt>
      <trkpt lat="48.93506" lon="1.77845">
        <ele>135</ele>
        <time>2024-06-23T21:12:46Z</time>
      </trkpt>
      <trkpt lat="48.93525" lon="1.77836">
        <ele>136</ele>
        <time>2024-06-23T21:13:13Z</time>
      </trkpt>
      <trkpt lat="48.93532" lon="1.77797">
        <ele>135</ele>
        <time>2024-06-23T21:13:48Z</time>
      </trkpt>
      <trkpt lat="48.93546" lon="1.77777">
        <ele>136</ele>
        <time>2024-06-23T21:14:14Z</time>
      </trkpt>
      <trkpt lat="48.93563" lon="1.77767">
        <ele>137</ele>
        <time>2024-06-23T21:14:38Z</time>
      </trkpt>
      <trkpt lat="48.93565" lon="1.77762">
        <ele>138</ele>
        <time>2024-06-23T21:14:43Z</time>
      </trkpt>
      <trkpt lat="48.93554" lon="1.77764">
        <ele>136</ele>
        <time>2024-06-23T21:14:58Z</time>
      </trkpt>
      <trkpt lat="48.93528" lon="1.7774">
        <ele>132</ele>
        <time>2024-06-23T21:15:38Z</time>
      </trkpt>
      <trkpt lat="48.93527" lon="1.77727">
        <ele>132</ele>
        <time>2024-06-23T21:15:50Z</time>
      </trkpt>
      <trkpt lat="48.93534" lon="1.77697">
        <ele>132</ele>
        <time>2024-06-23T21:16:18Z</time>
      </trkpt>
      <trkpt lat="48.93527" lon="1.77672">
        <ele>131</ele>
        <time>2024-06-23T21:16:42Z</time>
      </trkpt>
      <trkpt lat="48.93517" lon="1.77673">
        <ele>130</ele>
        <time>2024-06-23T21:16:55Z</time>
      </trkpt>
      <trkpt lat="48.93506" lon="1.77656">
        <ele>127</ele>
        <time>2024-06-23T21:17:16Z</time>
      </trkpt>
      <trkpt lat="48.93474" lon="1.77664">
        <ele>125</ele>
        <time>2024-06-23T21:17:59Z</time>
      </trkpt>
      <trkpt lat="48.93467" lon="1.77651">
        <ele>123</ele>
        <time>2024-06-23T21:18:14Z</time>
      </trkpt>
      <trkpt lat="48.93454" lon="1.77645">
        <ele>121</ele>
        <time>2024-06-23T21:18:32Z</time>
      </trkpt>
      <trkpt lat="48.93452" lon="1.7763">
        <ele>120</ele>
        <time>2024-06-23T21:18:45Z</time>
      </trkpt>
      <trkpt lat="48.93432" lon="1.77644">
        <ele>119</ele>
        <time>2024-06-23T21:19:15Z</time>
      </trkpt>
      <trkpt lat="48.93442" lon="1.77614">
        <ele>117</ele>
        <time>2024-06-23T21:19:44Z</time>
      </trkpt>
      <trkpt lat="48.93445" lon="1.77573">
        <ele>113</ele>
        <time>2024-06-23T21:20:20Z</time>
      </trkpt>
      <trkpt lat="48.93427" lon="1.77536">
        <ele>107</ele>
        <time>2024-06-23T21:21:01Z</time>
      </trkpt>
      <trkpt lat="48.93424" lon="1.77519">
        <ele>104</ele>
        <time>2024-06-23T21:21:16Z</time>
      </trkpt>
      <trkpt lat="48.93414" lon="1.77518">
        <ele>103</ele>
        <time>2024-06-23T21:21:30Z</time>
      </trkpt>
      <trkpt lat="48.93406" lon="1.77502">
        <ele>101</ele>
        <time>2024-06-23T21:21:47Z</time>
      </trkpt>
      <trkpt lat="48.93397" lon="1.77497">
        <ele>100</ele>
        <time>2024-06-23T21:22:00Z</time>
      </trkpt>
      <trkpt lat="48.93393" lon="1.77489">
        <ele>99</ele>
        <time>2024-06-23T21:22:09Z</time>
      </trkpt>
      <trkpt lat="48.93376" lon="1.77376">
        <ele>83</ele>
        <time>2024-06-23T21:23:50Z</time>
      </trkpt>
      <trkpt lat="48.93432" lon="1.77341">
        <ele>80</ele>
        <time>2024-06-23T21:25:11Z</time>
      </trkpt>
      <trkpt lat="48.93476" lon="1.77262">
        <ele>78</ele>
        <time>2024-06-23T21:26:42Z</time>
      </trkpt>
      <trkpt lat="48.93486" lon="1.77224">
        <ele>76</ele>
        <time>2024-06-23T21:27:18Z</time>
      </trkpt>
      <trkpt lat="48.93496" lon="1.77205">
        <ele>76</ele>
        <time>2024-06-23T21:27:39Z</time>
      </trkpt>
      <trkpt lat="48.93505" lon="1.77159">
        <ele>74</ele>
        <time>2024-06-23T21:28:21Z</time>
      </trkpt>
      <trkpt lat="48.9351" lon="1.77166">
        <ele>75</ele>
        <time>2024-06-23T21:28:30Z</time>
      </trkpt>
      <trkpt lat="48.93524" lon="1.77142">
        <ele>76</ele>
        <time>2024-06-23T21:28:59Z</time>
      </trkpt>
      <trkpt lat="48.93529" lon="1.77096">
        <ele>74</ele>
        <time>2024-06-23T21:29:39Z</time>
      </trkpt>
      <trkpt lat="48.93524" lon="1.77075">
        <ele>72</ele>
        <time>2024-06-23T21:29:59Z</time>
      </trkpt>
      <trkpt lat="48.93525" lon="1.77043">
        <ele>71</ele>
        <time>2024-06-23T21:30:27Z</time>
      </trkpt>
      <trkpt lat="48.93539" lon="1.7699">
        <ele>71</ele>
        <time>2024-06-23T21:31:17Z</time>
      </trkpt>
      <trkpt lat="48.93552" lon="1.76959">
        <ele>72</ele>
        <time>2024-06-23T21:31:49Z</time>
      </trkpt>
      <trkpt lat="48.93565" lon="1.76958">
        <ele>73</ele>
        <time>2024-06-23T21:32:07Z</time>
      </trkpt>
      <trkpt lat="48.93585" lon="1.76945">
        <ele>75</ele>
        <time>2024-06-23T21:32:36Z</time>
      </trkpt>
      <trkpt lat="48.93602" lon="1.76941">
        <ele>75</ele>
        <time>2024-06-23T21:32:59Z</time>
      </trkpt>
      <trkpt lat="48.93625" lon="1.76946">
        <ele>77</ele>
        <time>2024-06-23T21:33:30Z</time>
      </trkpt>
      <trkpt lat="48.93643" lon="1.76929">
        <ele>77</ele>
        <time>2024-06-23T21:33:58Z</time>
      </trkpt>
      <trkpt lat="48.93665" lon="1.76933">
        <ele>78</ele>
        <time>2024-06-23T21:34:28Z</time>
      </trkpt>
      <trkpt lat="48.93702" lon="1.76915">
        <ele>77</ele>
        <time>2024-06-23T21:35:19Z</time>
      </trkpt>
      <trkpt lat="48.93708" lon="1.76911">
        <ele>77</ele>
        <time>2024-06-23T21:35:28Z</time>
      </trkpt>
      <trkpt lat="48.93726" lon="1.76878">
        <ele>79</ele>
        <time>2024-06-23T21:36:06Z</time>
      </trkpt>
      <trkpt lat="48.93741" lon="1.76869">
        <ele>79</ele>
        <time>2024-06-23T21:36:27Z</time>
      </trkpt>
      <trkpt lat="48.93758" lon="1.76865">
        <ele>79</ele>
        <time>2024-06-23T21:36:50Z</time>
      </trkpt>
      <trkpt lat="48.93772" lon="1.76849">
        <ele>79</ele>
        <time>2024-06-23T21:37:14Z</time>
      </trkpt>
      <trkpt lat="48.93814" lon="1.76818">
        <ele>79</ele>
        <time>2024-06-23T21:38:16Z</time>
      </trkpt>
      <trkpt lat="48.93842" lon="1.76806">
        <ele>79</ele>
        <time>2024-06-23T21:38:55Z</time>
      </trkpt>
      <trkpt lat="48.93867" lon="1.76786">
        <ele>80</ele>
        <time>2024-06-23T21:39:32Z</time>
      </trkpt>
      <trkpt lat="48.93881" lon="1.76779">
        <ele>80</ele>
        <time>2024-06-23T21:39:52Z</time>
      </trkpt>
      <trkpt lat="48.93893" lon="1.76778">
        <ele>80</ele>
        <time>2024-06-23T21:40:08Z</time>
      </trkpt>
      <trkpt lat="48.93904" lon="1.7677">
        <ele>80</ele>
        <time>2024-06-23T21:40:24Z</time>
      </trkpt>
      <trkpt lat="48.93915" lon="1.76753">
        <ele>80</ele>
        <time>2024-06-23T21:40:45Z</time>
      </trkpt>
      <trkpt lat="48.93952" lon="1.76721">
        <ele>78</ele>
        <time>2024-06-23T21:41:42Z</time>
      </trkpt>
      <trkpt lat="48.93967" lon="1.76693">
        <ele>78</ele>
        <time>2024-06-23T21:42:14Z</time>
      </trkpt>
      <trkpt lat="48.93973" lon="1.76666">
        <ele>78</ele>
        <time>2024-06-23T21:42:39Z</time>
      </trkpt>
      <trkpt lat="48.93973" lon="1.76596">
        <ele>76</ele>
        <time>2024-06-23T21:43:40Z</time>
      </trkpt>
      <trkpt lat="48.93983" lon="1.76547">
        <ele>72</ele>
        <time>2024-06-23T21:44:25Z</time>
      </trkpt>
      <trkpt lat="48.94037" lon="1.76393">
        <ele>63</ele>
        <time>2024-06-23T21:46:58Z</time>
      </trkpt>
      <trkpt lat="48.94085" lon="1.76228">
        <ele>61</ele>
        <time>2024-06-23T21:49:36Z</time>
      </trkpt>
      <trkpt lat="48.9411" lon="1.76168">
        <ele>61</ele>
        <time>2024-06-23T21:50:39Z</time>
      </trkpt>
      <trkpt lat="48.94145" lon="1.76101">
        <ele>62</ele>
        <time>2024-06-23T21:51:54Z</time>
      </trkpt>
      <trkpt lat="48.94152" lon="1.76047">
        <ele>62</ele>
        <time>2024-06-23T21:52:42Z</time>
      </trkpt>
      <trkpt lat="48.94159" lon="1.76046">
        <ele>61</ele>
        <time>2024-06-23T21:52:51Z</time>
      </trkpt>
      <trkpt lat="48.94154" lon="1.76048">
        <ele>62</ele>
        <time>2024-06-23T21:52:58Z</time>
      </trkpt>
      <trkpt lat="48.94152" lon="1.76045">
        <ele>62</ele>
        <time>2024-06-23T21:53:02Z</time>
      </trkpt>
      <trkpt lat="48.94151" lon="1.76048">
        <ele>62</ele>
        <time>2024-06-23T21:53:05Z</time>
      </trkpt>
      <trkpt lat="48.94152" lon="1.76044">
        <ele>62</ele>
        <time>2024-06-23T21:53:09Z</time>
      </trkpt>
      <trkpt lat="48.94149" lon="1.76052">
        <ele>63</ele>
        <time>2024-06-23T21:53:17Z</time>
      </trkpt>
      <trkpt lat="48.94157" lon="1.76045">
        <ele>62</ele>
        <time>2024-06-23T21:53:29Z</time>
      </trkpt>
      <trkpt lat="48.94164" lon="1.76007">
        <ele>61</ele>
        <time>2024-06-23T21:54:04Z</time>
      </trkpt>
      <trkpt lat="48.94179" lon="1.75962">
        <ele>60</ele>
        <time>2024-06-23T21:54:48Z</time>
      </trkpt>
      <trkpt lat="48.94183" lon="1.75898">
        <ele>59</ele>
        <time>2024-06-23T21:55:44Z</time>
      </trkpt>
      <trkpt lat="48.94172" lon="1.75842">
        <ele>60</ele>
        <time>2024-06-23T21:56:35Z</time>
      </trkpt>
      <trkpt lat="48.94163" lon="1.75736">
        <ele>60</ele>
        <time>2024-06-23T21:58:09Z</time>
      </trkpt>
      <trkpt lat="48.94181" lon="1.7564">
        <ele>61</ele>
        <time>2024-06-23T21:59:37Z</time>
      </trkpt>
      <trkpt lat="48.94216" lon="1.75541">
        <ele>61</ele>
        <time>2024-06-23T22:01:15Z</time>
      </trkpt>
      <trkpt lat="48.94243" lon="1.75484">
        <ele>59</ele>
        <time>2024-06-23T22:02:17Z</time>
      </trkpt>
      <trkpt lat="48.94265" lon="1.75388">
        <ele>60</ele>
        <time>2024-06-23T22:03:46Z</time>
      </trkpt>
      <trkpt lat="48.94264" lon="1.7537">
        <ele>61</ele>
        <time>2024-06-23T22:04:02Z</time>
      </trkpt>
      <trkpt lat="48.94236" lon="1.75283">
        <ele>68</ele>
        <time>2024-06-23T22:05:27Z</time>
      </trkpt>
      <trkpt lat="48.94274" lon="1.75207">
        <ele>67</ele>
        <time>2024-06-23T22:06:50Z</time>
      </trkpt>
      <trkpt lat="48.94302" lon="1.7514">
        <ele>68</ele>
        <time>2024-06-23T22:08:00Z</time>
      </trkpt>
      <trkpt lat="48.94328" lon="1.75103">
        <ele>67</ele>
        <time>2024-06-23T22:08:47Z</time>
      </trkpt>
      <trkpt lat="48.94342" lon="1.75073">
        <ele>68</ele>
        <time>2024-06-23T22:09:20Z</time>
      </trkpt>
      <trkpt lat="48.94327" lon="1.75048">
        <ele>72</ele>
        <time>2024-06-23T22:09:49Z</time>
      </trkpt>
      <trkpt lat="48.94293" lon="1.74961">
        <ele>85</ele>
        <time>2024-06-23T22:11:18Z</time>
      </trkpt>
      <trkpt lat="48.94308" lon="1.74937">
        <ele>86</ele>
        <time>2024-06-23T22:11:47Z</time>
      </trkpt>
      <trkpt lat="48.94304" lon="1.74931">
        <ele>87</ele>
        <time>2024-06-23T22:11:55Z</time>
      </trkpt>
      <trkpt lat="48.94298" lon="1.74934">
        <ele>87</ele>
        <time>2024-06-23T22:12:03Z</time>
      </trkpt>
      <trkpt lat="48.94304" lon="1.74918">
        <ele>88</ele>
        <time>2024-06-23T22:12:19Z</time>
      </trkpt>
      <trkpt lat="48.9433" lon="1.74875">
        <ele>88</ele>
        <time>2024-06-23T22:13:10Z</time>
      </trkpt>
      <trkpt lat="48.94376" lon="1.74826">
        <ele>85</ele>
        <time>2024-06-23T22:14:25Z</time>
      </trkpt>
      <trkpt lat="48.94427" lon="1.74745">
        <ele>84</ele>
        <time>2024-06-23T22:16:04Z</time>
      </trkpt>
      <trkpt lat="48.94463" lon="1.74705">
        <ele>83</ele>
        <time>2024-06-23T22:17:03Z</time>
      </trkpt>
      <trkpt lat="48.94476" lon="1.74696">
        <ele>82</ele>
        <time>2024-06-23T22:17:22Z</time>
      </trkpt>
      <trkpt lat="48.94486" lon="1.74697">
        <ele>81</ele>
        <time>2024-06-23T22:17:36Z</time>
      </trkpt>
      <trkpt lat="48.94499" lon="1.74707">
        <ele>78</ele>
        <time>2024-06-23T22:17:55Z</time>
      </trkpt>
      <trkpt lat="48.94546" lon="1.74726">
        <ele>72</ele>
        <time>2024-06-23T22:19:00Z</time>
      </trkpt>
      <trkpt lat="48.946" lon="1.74739">
        <ele>65</ele>
        <time>2024-06-23T22:20:13Z</time>
      </trkpt>
      <trkpt lat="48.94622" lon="1.74737">
        <ele>63</ele>
        <time>2024-06-23T22:20:42Z</time>
      </trkpt>
      <trkpt lat="48.94631" lon="1.74732">
        <ele>62</ele>
        <time>2024-06-23T22:20:55Z</time>
      </trkpt>
      <trkpt lat="48.94672" lon="1.74688">
        <ele>62</ele>
        <time>2024-06-23T22:22:02Z</time>
      </trkpt>
      <trkpt lat="48.9467" lon="1.74696">
        <ele>61</ele>
        <time>2024-06-23T22:22:09Z</time>
      </trkpt>
      <trkpt lat="48.94673" lon="1.74699">
        <ele>61</ele>
        <time>2024-06-23T22:22:14Z</time>
      </trkpt>
      <trkpt lat="48.9471" lon="1.74707">
        <ele>56</ele>
        <time>2024-06-23T22:23:04Z</time>
      </trkpt>
      <trkpt lat="48.9481" lon="1.74701">
        <ele>47</ele>
        <time>2024-06-23T22:25:18Z</time>
      </trkpt>
      <trkpt lat="48.94845" lon="1.74704">
        <ele>46</ele>
        <time>2024-06-23T22:26:04Z</time>
      </trkpt>
      <trkpt lat="48.94855" lon="1.7471">
        <ele>47</ele>
        <time>2024-06-23T22:26:19Z</time>
      </trkpt>
      <trkpt lat="48.94875" lon="1.74714">
        <ele>50</ele>
        <time>2024-06-23T22:26:46Z</time>
      </trkpt>
      <trkpt lat="48.94883" lon="1.74672">
        <ele>48</ele>
        <time>2024-06-23T22:27:24Z</time>
      </trkpt>
      <trkpt lat="48.94894" lon="1.74653">
        <ele>48</ele>
        <time>2024-06-23T22:27:46Z</time>
      </trkpt>
      <trkpt lat="48.94895" lon="1.74662">
        <ele>49</ele>
        <time>2024-06-23T22:27:54Z</time>
      </trkpt>
      <trkpt lat="48.94904" lon="1.74639">
        <ele>48</ele>
        <time>2024-06-23T22:28:18Z</time>
      </trkpt>
      <trkpt lat="48.94986" lon="1.74579">
        <ele>47</ele>
        <time>2024-06-23T22:30:19Z</time>
      </trkpt>
      <trkpt lat="48.95038" lon="1.74509">
        <ele>51</ele>
        <time>2024-06-23T22:31:52Z</time>
      </trkpt>
      <trkpt lat="48.95068" lon="1.7444">
        <ele>50</ele>
        <time>2024-06-23T22:33:04Z</time>
      </trkpt>
      <trkpt lat="48.95082" lon="1.74395">
        <ele>48</ele>
        <time>2024-06-23T22:33:48Z</time>
      </trkpt>
      <trkpt lat="48.95124" lon="1.74322">
        <ele>51</ele>
        <time>2024-06-23T22:35:13Z</time>
      </trkpt>
      <trkpt lat="48.95129" lon="1.74294">
        <ele>50</ele>
        <time>2024-06-23T22:35:38Z</time>
      </trkpt>
      <trkpt lat="48.95143" lon="1.74261">
        <ele>49</ele>
        <time>2024-06-23T22:36:13Z</time>
      </trkpt>
      <trkpt lat="48.95169" lon="1.74218">
        <ele>48</ele>
        <time>2024-06-23T22:37:04Z</time>
      </trkpt>
      <trkpt lat="48.9518" lon="1.74216">
        <ele>49</ele>
        <time>2024-06-23T22:37:19Z</time>
      </trkpt>
      <trkpt lat="48.95188" lon="1.74208">
        <ele>48</ele>
        <time>2024-06-23T22:37:32Z</time>
      </trkpt>
      <trkpt lat="48.95244" lon="1.74217">
        <ele>53</ele>
        <time>2024-06-23T22:38:47Z</time>
      </trkpt>
      <trkpt lat="48.9527" lon="1.74201">
        <ele>52</ele>
        <time>2024-06-23T22:39:24Z</time>
      </trkpt>
      <trkpt lat="48.95292" lon="1.74196">
        <ele>51</ele>
        <time>2024-06-23T22:39:54Z</time>
      </trkpt>
      <trkpt lat="48.95349" lon="1.74201">
        <ele>52</ele>
        <time>2024-06-23T22:41:10Z</time>
      </trkpt>
      <trkpt lat="48.95365" lon="1.74181">
        <ele>49</ele>
        <time>2024-06-23T22:41:38Z</time>
      </trkpt>
      <trkpt lat="48.95394" lon="1.74167">
        <ele>48</ele>
        <time>2024-06-23T22:42:18Z</time>
      </trkpt>
      <trkpt lat="48.95417" lon="1.7414">
        <ele>48</ele>
        <time>2024-06-23T22:42:57Z</time>
      </trkpt>
      <trkpt lat="48.95442" lon="1.74133">
        <ele>49</ele>
        <time>2024-06-23T22:43:31Z</time>
      </trkpt>
      <trkpt lat="48.9548" lon="1.74103">
        <ele>50</ele>
        <time>2024-06-23T22:44:28Z</time>
      </trkpt>
      <trkpt lat="48.9549" lon="1.74109">
        <ele>51</ele>
        <time>2024-06-23T22:44:42Z</time>
      </trkpt>
      <trkpt lat="48.95512" lon="1.74089">
        <ele>50</ele>
        <time>2024-06-23T22:45:17Z</time>
      </trkpt>
      <trkpt lat="48.95527" lon="1.74083">
        <ele>51</ele>
        <time>2024-06-23T22:45:37Z</time>
      </trkpt>
      <trkpt lat="48.95568" lon="1.74038">
        <ele>48</ele>
        <time>2024-06-23T22:46:45Z</time>
      </trkpt>
      <trkpt lat="48.95588" lon="1.74024">
        <ele>48</ele>
        <time>2024-06-23T22:47:14Z</time>
      </trkpt>
      <trkpt lat="48.95605" lon="1.73984">
        <ele>46</ele>
        <time>2024-06-23T22:47:56Z</time>
      </trkpt>
      <trkpt lat="48.95623" lon="1.73972">
        <ele>48</ele>
        <time>2024-06-23T22:48:22Z</time>
      </trkpt>
      <trkpt lat="48.95638" lon="1.73947">
        <ele>47</ele>
        <time>2024-06-23T22:48:52Z</time>
      </trkpt>
      <trkpt lat="48.95655" lon="1.73939">
        <ele>48</ele>
        <time>2024-06-23T22:49:15Z</time>
      </trkpt>
      <trkpt lat="48.95676" lon="1.73901">
        <ele>45</ele>
        <time>2024-06-23T22:49:59Z</time>
      </trkpt>
      <trkpt lat="48.95683" lon="1.73895">
        <ele>46</ele>
        <time>2024-06-23T22:50:10Z</time>
      </trkpt>
      <trkpt lat="48.95687" lon="1.73908">
        <ele>47</ele>
        <time>2024-06-23T22:50:22Z</time>
      </trkpt>
      <trkpt lat="48.95681" lon="1.7392">
        <ele>48</ele>
        <time>2024-06-23T22:50:35Z</time>
      </trkpt>
      <trkpt lat="48.95682" lon="1.73932">
        <ele>50</ele>
        <time>2024-06-23T22:50:46Z</time>
      </trkpt>
      <trkpt lat="48.95698" lon="1.73934">
        <ele>52</ele>
        <time>2024-06-23T22:51:08Z</time>
      </trkpt>
      <trkpt lat="48.95715" lon="1.73949">
        <ele>56</ele>
        <time>2024-06-23T22:51:34Z</time>
      </trkpt>
      <trkpt lat="48.95731" lon="1.73954">
        <ele>58</ele>
        <time>2024-06-23T22:51:56Z</time>
      </trkpt>
      <trkpt lat="48.95737" lon="1.73954">
        <ele>59</ele>
        <time>2024-06-23T22:52:04Z</time>
      </trkpt>
      <trkpt lat="48.9575" lon="1.73936">
        <ele>58</ele>
        <time>2024-06-23T22:52:27Z</time>
      </trkpt>
      <trkpt lat="48.95762" lon="1.73937">
        <ele>60</ele>
        <time>2024-06-23T22:52:43Z</time>
      </trkpt>
      <trkpt lat="48.95773" lon="1.73932">
        <ele>61</ele>
        <time>2024-06-23T22:52:58Z</time>
      </trkpt>
      <trkpt lat="48.95782" lon="1.73949">
        <ele>66</ele>
        <time>2024-06-23T22:53:17Z</time>
      </trkpt>
      <trkpt lat="48.95769" lon="1.73986">
        <ele>69</ele>
        <time>2024-06-23T22:53:54Z</time>
      </trkpt>
      <trkpt lat="48.95776" lon="1.74007">
        <ele>73</ele>
        <time>2024-06-23T22:54:15Z</time>
      </trkpt>
      <trkpt lat="48.95769" lon="1.74056">
        <ele>80</ele>
        <time>2024-06-23T22:54:59Z</time>
      </trkpt>
      <trkpt lat="48.95771" lon="1.74084">
        <ele>85</ele>
        <time>2024-06-23T22:55:23Z</time>
      </trkpt>
      <trkpt lat="48.95755" lon="1.74134">
        <ele>92</ele>
        <time>2024-06-23T22:56:12Z</time>
      </trkpt>
      <trkpt lat="48.95765" lon="1.74163">
        <ele>98</ele>
        <time>2024-06-23T22:56:41Z</time>
      </trkpt>
      <trkpt lat="48.95752" lon="1.7419">
        <ele>101</ele>
        <time>2024-06-23T22:57:10Z</time>
      </trkpt>
      <trkpt lat="48.95738" lon="1.74203">
        <ele>102</ele>
        <time>2024-06-23T22:57:32Z</time>
      </trkpt>
      <trkpt lat="48.95733" lon="1.74219">
        <ele>104</ele>
        <time>2024-06-23T22:57:48Z</time>
      </trkpt>
      <trkpt lat="48.95744" lon="1.74234">
        <ele>107</ele>
        <time>2024-06-23T22:58:07Z</time>
      </trkpt>
      <trkpt lat="48.95753" lon="1.74238">
        <ele>108</ele>
        <time>2024-06-23T22:58:20Z</time>
      </trkpt>
      <trkpt lat="48.95767" lon="1.74226">
        <ele>107</ele>
        <time>2024-06-23T22:58:41Z</time>
      </trkpt>
      <trkpt lat="48.95765" lon="1.74239">
        <ele>108</ele>
        <time>2024-06-23T22:58:53Z</time>
      </trkpt>
      <trkpt lat="48.95773" lon="1.7427">
        <ele>110</ele>
        <time>2024-06-23T22:59:22Z</time>
      </trkpt>
      <trkpt lat="48.95763" lon="1.74291">
        <ele>111</ele>
        <time>2024-06-23T22:59:45Z</time>
      </trkpt>
      <trkpt lat="48.95775" lon="1.74302">
        <ele>112</ele>
        <time>2024-06-23T23:00:04Z</time>
      </trkpt>
      <trkpt lat="48.95787" lon="1.74305">
        <ele>112</ele>
        <time>2024-06-23T23:00:20Z</time>
      </trkpt>
      <trkpt lat="48.9579" lon="1.74311">
        <ele>112</ele>
        <time>2024-06-23T23:00:26Z</time>
      </trkpt>
      <trkpt lat="48.95783" lon="1.74311">
        <ele>112</ele>
        <time>2024-06-23T23:00:36Z</time>
      </trkpt>
      <trkpt lat="48.95779" lon="1.74317">
        <ele>112</ele>
        <time>2024-06-23T23:00:43Z</time>
      </trkpt>
      <trkpt lat="48.95778" lon="1.74345">
        <ele>114</ele>
        <time>2024-06-23T23:01:08Z</time>
      </trkpt>
      <trkpt lat="48.95784" lon="1.74357">
        <ele>114</ele>
        <time>2024-06-23T23:01:21Z</time>
      </trkpt>
      <trkpt lat="48.95804" lon="1.74357">
        <ele>114</ele>
        <time>2024-06-23T23:01:48Z</time>
      </trkpt>
      <trkpt lat="48.95816" lon="1.74377">
        <ele>116</ele>
        <time>2024-06-23T23:02:12Z</time>
      </trkpt>
      <trkpt lat="48.95784" lon="1.74472">
        <ele>122</ele>
        <time>2024-06-23T23:03:45Z</time>
      </trkpt>
      <trkpt lat="48.95785" lon="1.74485">
        <ele>123</ele>
        <time>2024-06-23T23:03:57Z</time>
      </trkpt>
      <trkpt lat="48.95796" lon="1.74497">
        <ele>123</ele>
        <time>2024-06-23T23:04:15Z</time>
      </trkpt>
      <trkpt lat="48.95814" lon="1.74508">
        <ele>123</ele>
        <time>2024-06-23T23:04:40Z</time>
      </trkpt>
      <trkpt lat="48.95855" lon="1.7455">
        <ele>124</ele>
        <time>2024-06-23T23:05:46Z</time>
      </trkpt>
      <trkpt lat="48.9585" lon="1.74561">
        <ele>126</ele>
        <time>2024-06-23T23:05:58Z</time>
      </trkpt>
      <trkpt lat="48.95873" lon="1.74536">
        <ele>122</ele>
        <time>2024-06-23T23:06:36Z</time>
      </trkpt>
      <trkpt lat="48.95864" lon="1.74547">
        <ele>124</ele>
        <time>2024-06-23T23:06:51Z</time>
      </trkpt>
      <trkpt lat="48.95867" lon="1.74553">
        <ele>124</ele>
        <time>2024-06-23T23:06:58Z</time>
      </trkpt>
      <trkpt lat="48.95891" lon="1.74566">
        <ele>123</ele>
        <time>2024-06-23T23:07:32Z</time>
      </trkpt>
      <trkpt lat="48.9593" lon="1.74598">
        <ele>122</ele>
        <time>2024-06-23T23:08:31Z</time>
      </trkpt>
      <trkpt lat="48.95966" lon="1.74621">
        <ele>121</ele>
        <time>2024-06-23T23:09:23Z</time>
      </trkpt>
      <trkpt lat="48.96016" lon="1.74642">
        <ele>122</ele>
        <time>2024-06-23T23:10:32Z</time>
      </trkpt>
      <trkpt lat="48.96043" lon="1.7467">
        <ele>124</ele>
        <time>2024-06-23T23:11:16Z</time>
      </trkpt>
      <trkpt lat="48.96059" lon="1.74669">
        <ele>124</ele>
        <time>2024-06-23T23:11:37Z</time>
      </trkpt>
      <trkpt lat="48.96073" lon="1.7466">
        <ele>124</ele>
        <time>2024-06-23T23:11:58Z</time>
      </trkpt>
      <trkpt lat="48.96087" lon="1.74667">
        <ele>125</ele>
        <time>2024-06-23T23:12:17Z</time>
      </trkpt>
      <trkpt lat="48.96091" lon="1.74674">
        <ele>125</ele>
        <time>2024-06-23T23:12:25Z</time>
      </trkpt>
      <trkpt lat="48.96089" lon="1.74736">
        <ele>126</ele>
        <time>2024-06-23T23:13:20Z</time>
      </trkpt>
      <trkpt lat="48.96065" lon="1.74799">
        <ele>128</ele>
        <time>2024-06-23T23:14:24Z</time>
      </trkpt>
      <trkpt lat="48.9604" lon="1.74845">
        <ele>128</ele>
        <time>2024-06-23T23:15:16Z</time>
      </trkpt>
      <trkpt lat="48.96029" lon="1.74906">
        <ele>128</ele>
        <time>2024-06-23T23:16:11Z</time>
      </trkpt>
      <trkpt lat="48.96025" lon="1.75033">
        <ele>129</ele>
        <time>2024-06-23T23:18:03Z</time>
      </trkpt>
      <trkpt lat="48.96028" lon="1.75077">
        <ele>130</ele>
        <time>2024-06-23T23:18:41Z</time>
      </trkpt>
      <trkpt lat="48.96026" lon="1.75169">
        <ele>131</ele>
        <time>2024-06-23T23:20:02Z</time>
      </trkpt>
      <trkpt lat="48.9603" lon="1.75221">
        <ele>132</ele>
        <time>2024-06-23T23:20:48Z</time>
      </trkpt>
      <trkpt lat="48.96027" lon="1.75309">
        <ele>133</ele>
        <time>2024-06-23T23:22:05Z</time>
      </trkpt>
      <trkpt lat="48.95987" lon="1.75432">
        <ele>135</ele>
        <time>2024-06-23T23:24:05Z</time>
      </trkpt>
      <trkpt lat="48.95968" lon="1.75526">
        <ele>135</ele>
        <time>2024-06-23T23:25:32Z</time>
      </trkpt>
      <trkpt lat="48.95959" lon="1.75551">
        <ele>136</ele>
        <time>2024-06-23T23:25:57Z</time>
      </trkpt>
      <trkpt lat="48.95944" lon="1.75544">
        <ele>136</ele>
        <time>2024-06-23T23:26:18Z</time>
      </trkpt>
      <trkpt lat="48.95865" lon="1.75468">
        <ele>138</ele>
        <time>2024-06-23T23:28:22Z</time>
      </trkpt>
      <trkpt lat="48.95832" lon="1.75456">
        <ele>141</ele>
        <time>2024-06-23T23:29:07Z</time>
      </trkpt>
      <trkpt lat="48.95804" lon="1.75434">
        <ele>144</ele>
        <time>2024-06-23T23:29:50Z</time>
      </trkpt>
      <trkpt lat="48.95791" lon="1.75418">
        <ele>145</ele>
        <time>2024-06-23T23:30:12Z</time>
      </trkpt>
      <trkpt lat="48.95776" lon="1.75418">
        <ele>146</ele>
        <time>2024-06-23T23:30:32Z</time>
      </trkpt>
      <trkpt lat="48.95767" lon="1.75409">
        <ele>147</ele>
        <time>2024-06-23T23:30:46Z</time>
      </trkpt>
      <trkpt lat="48.95759" lon="1.75407">
        <ele>148</ele>
        <time>2024-06-23T23:30:57Z</time>
      </trkpt>
      <trkpt lat="48.95723" lon="1.75409">
        <ele>149</ele>
        <time>2024-06-23T23:31:45Z</time>
      </trkpt>
      <trkpt lat="48.95698" lon="1.75431">
        <ele>149</ele>
        <time>2024-06-23T23:32:24Z</time>
      </trkpt>
      <trkpt lat="48.95697" lon="1.75438">
        <ele>148</ele>
        <time>2024-06-23T23:32:30Z</time>
      </trkpt>
      <trkpt lat="48.95695" lon="1.75434">
        <ele>148</ele>
        <time>2024-06-23T23:32:34Z</time>
      </trkpt>
      <trkpt lat="48.95694" lon="1.75444">
        <ele>148</ele>
        <time>2024-06-23T23:32:43Z</time>
      </trkpt>
      <trkpt lat="48.95694" lon="1.75441">
        <ele>148</ele>
        <time>2024-06-23T23:32:46Z</time>
      </trkpt>
      <trkpt lat="48.95691" lon="1.75444">
        <ele>148</ele>
        <time>2024-06-23T23:32:51Z</time>
      </trkpt>
      <trkpt lat="48.95694" lon="1.75447">
        <ele>148</ele>
        <time>2024-06-23T23:32:55Z</time>
      </trkpt>
      <trkpt lat="48.95696" lon="1.75438">
        <ele>148</ele>
        <time>2024-06-23T23:33:04Z</time>
      </trkpt>
      <trkpt lat="48.95665" lon="1.75458">
        <ele>147</ele>
        <time>2024-06-23T23:33:49Z</time>
      </trkpt>
      <trkpt lat="48.95637" lon="1.75469">
        <ele>145</ele>
        <time>2024-06-23T23:34:27Z</time>
      </trkpt>
      <trkpt lat="48.95612" lon="1.7547">
        <ele>144</ele>
        <time>2024-06-23T23:35:01Z</time>
      </trkpt>
      <trkpt lat="48.95596" lon="1.75478">
        <ele>144</ele>
        <time>2024-06-23T23:35:23Z</time>
      </trkpt>
      <trkpt lat="48.95574" lon="1.75482">
        <ele>143</ele>
        <time>2024-06-23T23:35:53Z</time>
      </trkpt>
      <trkpt lat="48.95551" lon="1.75469">
        <ele>143</ele>
        <time>2024-06-23T23:36:25Z</time>
      </trkpt>
      <trkpt lat="48.95538" lon="1.75467">
        <ele>142</ele>
        <time>2024-06-23T23:36:43Z</time>
      </trkpt>
      <trkpt lat="48.95528" lon="1.7547">
        <ele>142</ele>
        <time>2024-06-23T23:36:56Z</time>
      </trkpt>
      <trkpt lat="48.95522" lon="1.75482">
        <ele>141</ele>
        <time>2024-06-23T23:37:10Z</time>
      </trkpt>
      <trkpt lat="48.95454" lon="1.75833">
        <ele>139</ele>
        <time>2024-06-23T23:42:30Z</time>
      </trkpt>
      <trkpt lat="48.95456" lon="1.75841">
        <ele>138</ele>
        <time>2024-06-23T23:42:38Z</time>
      </trkpt>
      <trkpt lat="48.95462" lon="1.75845">
        <ele>138</ele>
        <time>2024-06-23T23:42:47Z</time>
      </trkpt>
      <trkpt lat="48.95481" lon="1.75851">
        <ele>137</ele>
        <time>2024-06-23T23:43:12Z</time>
      </trkpt>
      <trkpt lat="48.95555" lon="1.75896">
        <ele>136</ele>
        <time>2024-06-23T23:44:59Z</time>
      </trkpt>
      <trkpt lat="48.9556" lon="1.75902">
        <ele>136</ele>
        <time>2024-06-23T23:45:07Z</time>
      </trkpt>
      <trkpt lat="48.9556" lon="1.75915">
        <ele>136</ele>
        <time>2024-06-23T23:45:19Z</time>
      </trkpt>
      <trkpt lat="48.95525" lon="1.75978">
        <ele>135</ele>
        <time>2024-06-23T23:46:31Z</time>
      </trkpt>
      <trkpt lat="48.95456" lon="1.76131">
        <ele>134</ele>
        <time>2024-06-23T23:49:14Z</time>
      </trkpt>
      <trkpt lat="48.95433" lon="1.76169">
        <ele>135</ele>
        <time>2024-06-23T23:49:59Z</time>
      </trkpt>
      <trkpt lat="48.95429" lon="1.76203">
        <ele>136</ele>
        <time>2024-06-23T23:50:29Z</time>
      </trkpt>
      <trkpt lat="48.95382" lon="1.76288">
        <ele>138</ele>
        <time>2024-06-23T23:52:07Z</time>
      </trkpt>
      <trkpt lat="48.95314" lon="1.76429">
        <ele>139</ele>
        <time>2024-06-23T23:54:40Z</time>
      </trkpt>
      <trkpt lat="48.95307" lon="1.76431">
        <ele>139</ele>
        <time>2024-06-23T23:54:49Z</time>
      </trkpt>
      <trkpt lat="48.95293" lon="1.76413">
        <ele>138</ele>
        <time>2024-06-23T23:55:14Z</time>
      </trkpt>
      <trkpt lat="48.9529" lon="1.76414">
        <ele>138</ele>
        <time>2024-06-23T23:55:18Z</time>
      </trkpt>
      <trkpt lat="48.95279" lon="1.76457">
        <ele>138</ele>
        <time>2024-06-23T23:55:58Z</time>
      </trkpt>
      <trkpt lat="48.95125" lon="1.76845">
        <ele>152</ele>
        <time>2024-06-24T00:02:36Z</time>
      </trkpt>
      <trkpt lat="48.9511" lon="1.76992">
        <ele>152</ele>
        <time>2024-06-24T00:04:46Z</time>
      </trkpt>
      <trkpt lat="48.95106" lon="1.77084">
        <ele>150</ele>
        <time>2024-06-24T00:06:07Z</time>
      </trkpt>
      <trkpt lat="48.95089" lon="1.77181">
        <ele>151</ele>
        <time>2024-06-24T00:07:35Z</time>
      </trkpt>
      <trkpt lat="48.95086" lon="1.7723">
        <ele>149</ele>
        <time>2024-06-24T00:08:18Z</time>
      </trkpt>
      <trkpt lat="48.95075" lon="1.77304">
        <ele>147</ele>
        <time>2024-06-24T00:09:24Z</time>
      </trkpt>
      <trkpt lat="48.95062" lon="1.77362">
        <ele>146</ele>
        <time>2024-06-24T00:10:18Z</time>
      </trkpt>
      <trkpt lat="48.95058" lon="1.77421">
        <ele>145</ele>
        <time>2024-06-24T00:11:10Z</time>
      </trkpt>
      <trkpt lat="48.95031" lon="1.7763">
        <ele>142</ele>
        <time>2024-06-24T00:14:17Z</time>
      </trkpt>
      <trkpt lat="48.95028" lon="1.77632">
        <ele>142</ele>
        <time>2024-06-24T00:14:21Z</time>
      </trkpt>
      <trkpt lat="48.94989" lon="1.77615">
        <ele>142</ele>
        <time>2024-06-24T00:15:15Z</time>
      </trkpt>
      <trkpt lat="48.94951" lon="1.77607">
        <ele>143</ele>
        <time>2024-06-24T00:16:06Z</time>
      </trkpt>
      <trkpt lat="48.94942" lon="1.77633">
        <ele>142</ele>
        <time>2024-06-24T00:16:32Z</time>
      </trkpt>
      <trkpt lat="48.94943" lon="1.77652">
        <ele>142</ele>
        <time>2024-06-24T00:16:49Z</time>
      </trkpt>
      <trkpt lat="48.94933" lon="1.77714">
        <ele>141</ele>
        <time>2024-06-24T00:17:45Z</time>
      </trkpt>
      <trkpt lat="48.94932" lon="1.7775">
        <ele>141</ele>
        <time>2024-06-24T00:18:16Z</time>
      </trkpt>
      <trkpt lat="48.94905" lon="1.77966">
        <ele>140</ele>
        <time>2024-06-24T00:21:29Z</time>
      </trkpt>
      <trkpt lat="48.9489" lon="1.78128">
        <ele>139</ele>
        <time>2024-06-24T00:23:53Z</time>
      </trkpt>
      <trkpt lat="48.94858" lon="1.78326">
        <ele>137</ele>
        <time>2024-06-24T00:26:51Z</time>
      </trkpt>
      <trkpt lat="48.94855" lon="1.78386">
        <ele>136</ele>
        <time>2024-06-24T00:27:44Z</time>
      </trkpt>
      <trkpt lat="48.94879" lon="1.78589">
        <ele>132</ele>
        <time>2024-06-24T00:30:45Z</time>
      </trkpt>
      <trkpt lat="48.9488" lon="1.78634">
        <ele>131</ele>
        <time>2024-06-24T00:31:24Z</time>
      </trkpt>
      <trkpt lat="48.94888" lon="1.78678">
        <ele>130</ele>
        <time>2024-06-24T00:32:04Z</time>
      </trkpt>
      <trkpt lat="48.94883" lon="1.78814">
        <ele>128</ele>
        <time>2024-06-24T00:34:04Z</time>
      </trkpt>
      <trkpt lat="48.94893" lon="1.78824">
        <ele>128</ele>
        <time>2024-06-24T00:34:20Z</time>
      </trkpt>
      <trkpt lat="48.94914" lon="1.78829">
        <ele>128</ele>
        <time>2024-06-24T00:34:48Z</time>
      </trkpt>
      <trkpt lat="48.94946" lon="1.78844">
        <ele>129</ele>
        <time>2024-06-24T00:35:33Z</time>
      </trkpt>
      <trkpt lat="48.94952" lon="1.78857">
        <ele>129</ele>
        <time>2024-06-24T00:35:47Z</time>
      </trkpt>
      <trkpt lat="48.94889" lon="1.78964">
        <ele>126</ele>
        <time>2024-06-24T00:37:52Z</time>
      </trkpt>
      <trkpt lat="48.94849" lon="1.79012">
        <ele>125</ele>
        <time>2024-06-24T00:39:00Z</time>
      </trkpt>
      <trkpt lat="48.94828" lon="1.79031">
        <ele>125</ele>
        <time>2024-06-24T00:39:33Z</time>
      </trkpt>
      <trkpt lat="48.94792" lon="1.79078">
        <ele>125</ele>
        <time>2024-06-24T00:40:36Z</time>
      </trkpt>
      <trkpt lat="48.94776" lon="1.79087">
        <ele>125</ele>
        <time>2024-06-24T00:40:59Z</time>
      </trkpt>
      <trkpt lat="48.94777" lon="1.79093">
        <ele>125</ele>
        <time>2024-06-24T00:41:04Z</time>
      </trkpt>
      <trkpt lat="48.94785" lon="1.79094">
        <ele>125</ele>
        <time>2024-06-24T00:41:15Z</time>
      </trkpt>
      <trkpt lat="48.9477" lon="1.79084">
        <ele>126</ele>
        <time>2024-06-24T00:41:37Z</time>
      </trkpt>
      <trkpt lat="48.9475" lon="1.79086">
        <ele>126</ele>
        <time>2024-06-24T00:42:04Z</time>
      </trkpt>
      <trkpt lat="48.94737" lon="1.79075">
        <ele>126</ele>
        <time>2024-06-24T00:42:24Z</time>
      </trkpt>
      <trkpt lat="48.9473" lon="1.79079">
        <ele>126</ele>
        <time>2024-06-24T00:42:34Z</time>
      </trkpt>
      <trkpt lat="48.94724" lon="1.79097">
        <ele>126</ele>
        <time>2024-06-24T00:42:51Z</time>
      </trkpt>
      <trkpt lat="48.94725" lon="1.79227">
        <ele>122</ele>
        <time>2024-06-24T00:44:45Z</time>
      </trkpt>
      <trkpt lat="48.94719" lon="1.79276">
        <ele>121</ele>
        <time>2024-06-24T00:45:29Z</time>
      </trkpt>
      <trkpt lat="48.94727" lon="1.79347">
        <ele>119</ele>
        <time>2024-06-24T00:46:32Z</time>
      </trkpt>
      <trkpt lat="48.94721" lon="1.79425">
        <ele>121</ele>
        <time>2024-06-24T00:47:41Z</time>
      </trkpt>
      <trkpt lat="48.94747" lon="1.79623">
        <ele>125</ele>
        <time>2024-06-24T00:50:38Z</time>
      </trkpt>
      <trkpt lat="48.94758" lon="1.79823">
        <ele>134</ele>
        <time>2024-06-24T00:53:34Z</time>
      </trkpt>
      <trkpt lat="48.94772" lon="1.79903">
        <ele>137</ele>
        <time>2024-06-24T00:54:46Z</time>
      </trkpt>
      <trkpt lat="48.94784" lon="1.80045">
        <ele>134</ele>
        <time>2024-06-24T00:56:52Z</time>
      </trkpt>
      <trkpt lat="48.948" lon="1.80131">
        <ele>130</ele>
        <time>2024-06-24T00:58:10Z</time>
      </trkpt>
      <trkpt lat="48.9481" lon="1.80146">
        <ele>129</ele>
        <time>2024-06-24T00:58:29Z</time>
      </trkpt>
      <trkpt lat="48.94875" lon="1.80292">
        <ele>122</ele>
        <time>2024-06-24T01:01:03Z</time>
      </trkpt>
      <trkpt lat="48.94893" lon="1.8032">
        <ele>121</ele>
        <time>2024-06-24T01:01:38Z</time>
      </trkpt>
      <trkpt lat="48.94938" lon="1.80412">
        <ele>118</ele>
        <time>2024-06-24T01:03:18Z</time>
      </trkpt>
      <trkpt lat="48.94979" lon="1.80504">
        <ele>115</ele>
        <time>2024-06-24T01:04:56Z</time>
      </trkpt>
      <trkpt lat="48.95028" lon="1.80588">
        <ele>112</ele>
        <time>2024-06-24T01:06:34Z</time>
      </trkpt>
      <trkpt lat="48.95067" lon="1.80677">
        <ele>108</ele>
        <time>2024-06-24T01:08:08Z</time>
      </trkpt>
      <trkpt lat="48.95094" lon="1.80721">
        <ele>107</ele>
        <time>2024-06-24T01:09:01Z</time>
      </trkpt>
      <trkpt lat="48.95114" lon="1.8077">
        <ele>106</ele>
        <time>2024-06-24T01:09:51Z</time>
      </trkpt>
      <trkpt lat="48.95142" lon="1.8081">
        <ele>104</ele>
        <time>2024-06-24T01:10:43Z</time>
      </trkpt>
      <trkpt lat="48.95155" lon="1.80844">
        <ele>103</ele>
        <time>2024-06-24T01:11:17Z</time>
      </trkpt>
      <trkpt lat="48.9517" lon="1.80865">
        <ele>103</ele>
        <time>2024-06-24T01:11:44Z</time>
      </trkpt>
      <trkpt lat="48.95175" lon="1.80887">
        <ele>102</ele>
        <time>2024-06-24T01:12:05Z</time>
      </trkpt>
      <trkpt lat="48.95187" lon="1.80911">
        <ele>102</ele>
        <time>2024-06-24T01:12:31Z</time>
      </trkpt>
      <trkpt lat="48.95192" lon="1.80936">
        <ele>102</ele>
        <time>2024-06-24T01:12:54Z</time>
      </trkpt>
      <trkpt lat="48.9518" lon="1.80966">
        <ele>101</ele>
        <time>2024-06-24T01:13:25Z</time>
      </trkpt>
      <trkpt lat="48.95154" lon="1.80997">
        <ele>100</ele>
        <time>2024-06-24T01:14:09Z</time>
      </trkpt>
      <trkpt lat="48.95143" lon="1.81029">
        <ele>100</ele>
        <time>2024-06-24T01:14:40Z</time>
      </trkpt>
      <trkpt lat="48.95121" lon="1.81068">
        <ele>99</ele>
        <time>2024-06-24T01:15:26Z</time>
      </trkpt>
      <trkpt lat="48.95107" lon="1.81118">
        <ele>99</ele>
        <time>2024-06-24T01:16:13Z</time>
      </trkpt>
      <trkpt lat="48.95079" lon="1.8117">
        <ele>99</ele>
        <time>2024-06-24T01:17:12Z</time>
      </trkpt>
      <trkpt lat="48.95074" lon="1.81212">
        <ele>97</ele>
        <time>2024-06-24T01:17:49Z</time>
      </trkpt>
      <trkpt lat="48.95001" lon="1.81332">
        <ele>90</ele>
        <time>2024-06-24T01:20:13Z</time>
      </trkpt>
      <trkpt lat="48.9501" lon="1.81338">
        <ele>90</ele>
        <time>2024-06-24T01:20:26Z</time>
      </trkpt>
      <trkpt lat="48.95035" lon="1.81388">
        <ele>88</ele>
        <time>2024-06-24T01:21:21Z</time>
      </trkpt>
      <trkpt lat="48.95054" lon="1.81405">
        <ele>87</ele>
        <time>2024-06-24T01:21:50Z</time>
      </trkpt>
      <trkpt lat="48.95063" lon="1.81425">
        <ele>86</ele>
        <time>2024-06-24T01:22:12Z</time>
      </trkpt>
      <trkpt lat="48.9508" lon="1.81441">
        <ele>85</ele>
        <time>2024-06-24T01:22:38Z</time>
      </trkpt>
      <trkpt lat="48.95116" lon="1.81493">
        <ele>79</ele>
        <time>2024-06-24T01:23:45Z</time>
      </trkpt>
      <trkpt lat="48.95128" lon="1.81518">
        <ele>77</ele>
        <time>2024-06-24T01:24:12Z</time>
      </trkpt>
      <trkpt lat="48.95145" lon="1.81536">
        <ele>76</ele>
        <time>2024-06-24T01:24:39Z</time>
      </trkpt>
      <trkpt lat="48.95156" lon="1.81568">
        <ele>73</ele>
        <time>2024-06-24T01:25:11Z</time>
      </trkpt>
      <trkpt lat="48.95195" lon="1.8163">
        <ele>70</ele>
        <time>2024-06-24T01:26:26Z</time>
      </trkpt>
      <trkpt lat="48.95231" lon="1.81669">
        <ele>69</ele>
        <time>2024-06-24T01:27:25Z</time>
      </trkpt>
      <trkpt lat="48.95223" lon="1.81689">
        <ele>68</ele>
        <time>2024-06-24T01:27:46Z</time>
      </trkpt>
      <trkpt lat="48.95158" lon="1.81772">
        <ele>63</ele>
        <time>2024-06-24T01:29:39Z</time>
      </trkpt>
      <trkpt lat="48.95156" lon="1.81785">
        <ele>63</ele>
        <time>2024-06-24T01:29:51Z</time>
      </trkpt>
      <trkpt lat="48.95164" lon="1.818">
        <ele>63</ele>
        <time>2024-06-24T01:30:08Z</time>
      </trkpt>
      <trkpt lat="48.95211" lon="1.81848">
        <ele>64</ele>
        <time>2024-06-24T01:31:23Z</time>
      </trkpt>
      <trkpt lat="48.95232" lon="1.8188">
        <ele>64</ele>
        <time>2024-06-24T01:32:03Z</time>
      </trkpt>
      <trkpt lat="48.95281" lon="1.81973">
        <ele>60</ele>
        <time>2024-06-24T01:33:47Z</time>
      </trkpt>
      <trkpt lat="48.95256" lon="1.82037">
        <ele>57</ele>
        <time>2024-06-24T01:34:52Z</time>
      </trkpt>
      <trkpt lat="48.95254" lon="1.82076">
        <ele>55</ele>
        <time>2024-06-24T01:35:27Z</time>
      </trkpt>
      <trkpt lat="48.95245" lon="1.82102">
        <ele>53</ele>
        <time>2024-06-24T01:35:52Z</time>
      </trkpt>
      <trkpt lat="48.95225" lon="1.82198">
        <ele>45</ele>
        <time>2024-06-24T01:37:21Z</time>
      </trkpt>
      <trkpt lat="48.95202" lon="1.82238">
        <ele>41</ele>
        <time>2024-06-24T01:38:07Z</time>
      </trkpt>
      <trkpt lat="48.95176" lon="1.82265">
        <ele>39</ele>
        <time>2024-06-24T01:38:49Z</time>
      </trkpt>
      <trkpt lat="48.95172" lon="1.82266">
        <ele>39</ele>
        <time>2024-06-24T01:38:55Z</time>
      </trkpt>
      <trkpt lat="48.95164" lon="1.82257">
        <ele>39</ele>
        <time>2024-06-24T01:39:08Z</time>
      </trkpt>
      <trkpt lat="48.95156" lon="1.82268">
        <ele>39</ele>
        <time>2024-06-24T01:39:22Z</time>
      </trkpt>
      <trkpt lat="48.9514" lon="1.82277">
        <ele>40</ele>
        <time>2024-06-24T01:39:45Z</time>
      </trkpt>
      <trkpt lat="48.95113" lon="1.82306">
        <ele>42</ele>
        <time>2024-06-24T01:40:29Z</time>
      </trkpt>
      <trkpt lat="48.951" lon="1.82314">
        <ele>43</ele>
        <time>2024-06-24T01:40:48Z</time>
      </trkpt>
      <trkpt lat="48.95089" lon="1.8233">
        <ele>44</ele>
        <time>2024-06-24T01:41:08Z</time>
      </trkpt>
      <trkpt lat="48.95034" lon="1.8237">
        <ele>47</ele>
        <time>2024-06-24T01:42:30Z</time>
      </trkpt>
      <trkpt lat="48.95003" lon="1.82374">
        <ele>49</ele>
        <time>2024-06-24T01:43:11Z</time>
      </trkpt>
      <trkpt lat="48.94975" lon="1.82395">
        <ele>52</ele>
        <time>2024-06-24T01:43:53Z</time>
      </trkpt>
      <trkpt lat="48.94955" lon="1.82395">
        <ele>54</ele>
        <time>2024-06-24T01:44:19Z</time>
      </trkpt>
      <trkpt lat="48.94948" lon="1.82401">
        <ele>55</ele>
        <time>2024-06-24T01:44:30Z</time>
      </trkpt>
      <trkpt lat="48.9494" lon="1.8239">
        <ele>56</ele>
        <time>2024-06-24T01:44:45Z</time>
      </trkpt>
      <trkpt lat="48.94919" lon="1.82331">
        <ele>60</ele>
        <time>2024-06-24T01:45:43Z</time>
      </trkpt>
      <trkpt lat="48.94908" lon="1.82332">
        <ele>61</ele>
        <time>2024-06-24T01:45:58Z</time>
      </trkpt>
      <trkpt lat="48.94896" lon="1.8231">
        <ele>64</ele>
        <time>2024-06-24T01:46:23Z</time>
      </trkpt>
      <trkpt lat="48.9487" lon="1.82292">
        <ele>69</ele>
        <time>2024-06-24T01:47:01Z</time>
      </trkpt>
      <trkpt lat="48.94861" lon="1.82291">
        <ele>71</ele>
        <time>2024-06-24T01:47:13Z</time>
      </trkpt>
      <trkpt lat="48.94855" lon="1.82295">
        <ele>71</ele>
        <time>2024-06-24T01:47:22Z</time>
      </trkpt>
      <trkpt lat="48.94842" lon="1.82319">
        <ele>71</ele>
        <time>2024-06-24T01:47:49Z</time>
      </trkpt>
      <trkpt lat="48.94823" lon="1.82332">
        <ele>73</ele>
        <time>2024-06-24T01:48:17Z</time>
      </trkpt>
      <trkpt lat="48.94805" lon="1.82357">
        <ele>74</ele>
        <time>2024-06-24T01:48:50Z</time>
      </trkpt>
      <trkpt lat="48.94786" lon="1.82374">
        <ele>76</ele>
        <time>2024-06-24T01:49:19Z</time>
      </trkpt>
      <trkpt lat="48.94754" lon="1.82416">
        <ele>78</ele>
        <time>2024-06-24T01:50:15Z</time>
      </trkpt>
      <trkpt lat="48.94715" lon="1.82457">
        <ele>82</ele>
        <time>2024-06-24T01:51:19Z</time>
      </trkpt>
      <trkpt lat="48.94707" lon="1.82472">
        <ele>82</ele>
        <time>2024-06-24T01:51:36Z</time>
      </trkpt>
      <trkpt lat="48.94709" lon="1.82489">
        <ele>81</ele>
        <time>2024-06-24T01:51:51Z</time>
      </trkpt>
      <trkpt lat="48.9475" lon="1.82568">
        <ele>73</ele>
        <time>2024-06-24T01:53:19Z</time>
      </trkpt>
      <trkpt lat="48.94726" lon="1.82609">
        <ele>72</ele>
        <time>2024-06-24T01:54:07Z</time>
      </trkpt>
      <trkpt lat="48.94709" lon="1.82624">
        <ele>72</ele>
        <time>2024-06-24T01:54:33Z</time>
      </trkpt>
      <trkpt lat="48.94687" lon="1.82652">
        <ele>72</ele>
        <time>2024-06-24T01:55:12Z</time>
      </trkpt>
      <trkpt lat="48.94636" lon="1.82699">
        <ele>71</ele>
        <time>2024-06-24T01:56:31Z</time>
      </trkpt>
      <trkpt lat="48.94611" lon="1.82716">
        <ele>72</ele>
        <time>2024-06-24T01:57:08Z</time>
      </trkpt>
      <trkpt lat="48.94598" lon="1.82738">
        <ele>71</ele>
        <time>2024-06-24T01:57:34Z</time>
      </trkpt>
      <trkpt lat="48.94561" lon="1.82783">
        <ele>70</ele>
        <time>2024-06-24T01:58:37Z</time>
      </trkpt>
      <trkpt lat="48.94543" lon="1.82814">
        <ele>70</ele>
        <time>2024-06-24T01:59:13Z</time>
      </trkpt>
      <trkpt lat="48.9451" lon="1.82831">
        <ele>71</ele>
        <time>2024-06-24T02:00:00Z</time>
      </trkpt>
      <trkpt lat="48.94496" lon="1.82834">
        <ele>72</ele>
        <time>2024-06-24T02:00:18Z</time>
      </trkpt>
      <trkpt lat="48.94446" lon="1.82866">
        <ele>68</ele>
        <time>2024-06-24T02:01:31Z</time>
      </trkpt>
      <trkpt lat="48.94422" lon="1.8287">
        <ele>68</ele>
        <time>2024-06-24T02:02:03Z</time>
      </trkpt>
      <trkpt lat="48.94429" lon="1.82883">
        <ele>66</ele>
        <time>2024-06-24T02:02:18Z</time>
      </trkpt>
      <trkpt lat="48.94447" lon="1.829">
        <ele>65</ele>
        <time>2024-06-24T02:02:46Z</time>
      </trkpt>
      <trkpt lat="48.94421" lon="1.83006">
        <ele>48</ele>
        <time>2024-06-24T02:04:25Z</time>
      </trkpt>
      <trkpt lat="48.94424" lon="1.83055">
        <ele>43</ele>
        <time>2024-06-24T02:05:08Z</time>
      </trkpt>
      <trkpt lat="48.94431" lon="1.83061">
        <ele>42</ele>
        <time>2024-06-24T02:05:19Z</time>
      </trkpt>
      <trkpt lat="48.9444" lon="1.83059">
        <ele>42</ele>
        <time>2024-06-24T02:05:31Z</time>
      </trkpt>
      <trkpt lat="48.94443" lon="1.83053">
        <ele>43</ele>
        <time>2024-06-24T02:05:38Z</time>
      </trkpt>
      <trkpt lat="48.94446" lon="1.83056">
        <ele>43</ele>
        <time>2024-06-24T02:05:43Z</time>
      </trkpt>
      <trkpt lat="48.94435" lon="1.83077">
        <ele>40</ele>
        <time>2024-06-24T02:06:06Z</time>
      </trkpt>
      <trkpt lat="48.94405" lon="1.83089">
        <ele>41</ele>
        <time>2024-06-24T02:06:48Z</time>
      </trkpt>
      <trkpt lat="48.94397" lon="1.83098">
        <ele>42</ele>
        <time>2024-06-24T02:07:01Z</time>
      </trkpt>
      <trkpt lat="48.94402" lon="1.83118">
        <ele>39</ele>
        <time>2024-06-24T02:07:20Z</time>
      </trkpt>
      <trkpt lat="48.94399" lon="1.83134">
        <ele>38</ele>
        <time>2024-06-24T02:07:34Z</time>
      </trkpt>
      <trkpt lat="48.94403" lon="1.83154">
        <ele>36</ele>
        <time>2024-06-24T02:07:52Z</time>
      </trkpt>
      <trkpt lat="48.9441" lon="1.83172">
        <ele>33</ele>
        <time>2024-06-24T02:08:11Z</time>
      </trkpt>
      <trkpt lat="48.94418" lon="1.83178">
        <ele>31</ele>
        <time>2024-06-24T02:08:23Z</time>
      </trkpt>
      <trkpt lat="48.94419" lon="1.8319">
        <ele>30</ele>
        <time>2024-06-24T02:08:33Z</time>
      </trkpt>
      <trkpt lat="48.94407" lon="1.83209">
        <ele>30</ele>
        <time>2024-06-24T02:08:56Z</time>
      </trkpt>
      <trkpt lat="48.94369" lon="1.83233">
        <ele>33</ele>
        <time>2024-06-24T02:09:51Z</time>
      </trkpt>
      <trkpt lat="48.9433" lon="1.83272">
        <ele>32</ele>
        <time>2024-06-24T02:10:54Z</time>
      </trkpt>
    </trkseg>
  </trk>
</gpx>